Beef Island, British Virgin Islands

9:13 PM AST on February 27, 2015 (GMT -0400)
Beef I International | Change Station
CLOSE
Current Station
Airport
Location: Beef Island,
Elevation: 13 ft
Nearby Weather Stations

Elev 13 ft 18.44 °N, 64.54 °W | Updated 13 minutes ago

Scattered Clouds
Scattered Clouds
77 °F
Feels Like 77 °F
N
14
Wind Variable Wind from East

Today
High -- | Low -- °F
--% Chance of Precip.
Yesterday
High -- | Low -- °F
Precip. -- in
6:38 AM 6:23 PM
Waxing Gibbous, 73% visible
Pressure 30.09 in
Visibility 6.2 miles
Clouds Scattered Clouds 2100 ft
Dew Point 70 °F
Humidity 78%
Rainfall 0.00 in
Snow Depth Not available.
UV 0 out of 12
Pollen Not available.
Air Quality Not available.
Flu Activity Not available.
METAR TUPJ 280100Z 09012KT 9999 SCT021 25/21 Q1019 RMK A3010

More Conditions Fewer Conditions

Pressure 30.09 in
Visibility 6.2 miles
Clouds Scattered Clouds 2100 ft
Dew Point 70 °F
Humidity 78%
Rainfall 0.00 in
Snow Depth Not available.
UV 0 out of 12
Pollen Not available.
Air Quality Not available.
Flu Activity Not available.
METAR TUPJ 280100Z 09012KT 9999 SCT021 25/21 Q1019 RMK A3010

More Conditions Fewer Conditions

10-Day Weather Forecast

Almanac

Astronomy

Feb. 27, 2015 Rise Set
Actual Time
Civil Twilight
Nautical Twilight
Astronomical Twilight
Moon
Length of Visible Light
Length of Day
Tomorrow will be .
, % of the Moon is Illuminated

Today's Extremes

Country Highs Country Lows

Community

WunderPhotos

Upload Photos

1,800,914 photos uploaded!

WunderBlogs® & News

Nearby

Air Quality

  Air Quality AQ Index Pollutant
Not available.

Snow Depth

Station Depth Elevation

Earthquake Activity

City Distance Mag. Time & Date
Minimum magnitude displayed is 2.5.

Coastal Water Temperatures

Place Temperature

Nearby Weather Stations